sensor_id;sensor_type;location;lat;lon;timestamp;pressure;altitude;pressure_sealevel;temperature;humidity
36260;BME280;22296;50.824;5.644;2023-01-30T00:01:15;101154.81;;;14.15;51.59
36260;BME280;22296;50.824;5.644;2023-01-30T00:03:43;101150.47;;;13.82;51.90
36260;BME280;22296;50.824;5.644;2023-01-30T00:06:11;101146.50;;;13.56;52.39
36260;BME280;22296;50.824;5.644;2023-01-30T00:08:38;101137.75;;;13.49;52.52
36260;BME280;22296;50.824;5.644;2023-01-30T00:11:07;101156.13;;;13.45;52.41
36260;BME280;22296;50.824;5.644;2023-01-30T00:13:34;101129.63;;;13.39;52.78
36260;BME280;22296;50.824;5.644;2023-01-30T00:16:02;101125.81;;;13.35;52.87
36260;BME280;22296;50.824;5.644;2023-01-30T00:18:29;101122.44;;;13.38;52.86
36260;BME280;22296;50.824;5.644;2023-01-30T00:21:01;101119.16;;;13.36;52.75
36260;BME280;22296;50.824;5.644;2023-01-30T00:23:30;101126.72;;;13.30;52.96
36260;BME280;22296;50.824;5.644;2023-01-30T00:25:57;101136.13;;;13.29;52.83
36260;BME280;22296;50.824;5.644;2023-01-30T00:28:24;101123.72;;;13.27;52.68
36260;BME280;22296;50.824;5.644;2023-01-30T00:30:52;101129.56;;;13.25;53.02
36260;BME280;22296;50.824;5.644;2023-01-30T00:33:24;101115.78;;;13.20;52.89
36260;BME280;22296;50.824;5.644;2023-01-30T00:35:52;101102.63;;;13.12;53.33
36260;BME280;22296;50.824;5.644;2023-01-30T00:38:20;101100.41;;;13.14;53.08
36260;BME280;22296;50.824;5.644;2023-01-30T00:40:47;101103.00;;;13.05;53.33
36260;BME280;22296;50.824;5.644;2023-01-30T00:43:17;101103.00;;;13.05;53.29
36260;BME280;22296;50.824;5.644;2023-01-30T00:49:18;101099.69;;;13.03;53.16
36260;BME280;22296;50.824;5.644;2023-01-30T00:51:45;101099.34;;;13.10;52.93
36260;BME280;22296;50.824;5.644;2023-01-30T00:54:12;101072.84;;;13.04;52.94
36260;BME280;22296;50.824;5.644;2023-01-30T00:56:39;101068.06;;;12.91;53.16
36260;BME280;22296;50.824;5.644;2023-01-30T00:59:06;101069.94;;;12.95;53.51
36260;BME280;22296;50.824;5.644;2023-01-30T01:01:33;101059.81;;;12.86;53.61
36260;BME280;22296;50.824;5.644;2023-01-30T01:04:00;101072.78;;;12.90;53.36
36260;BME280;22296;50.824;5.644;2023-01-30T01:06:27;101087.22;;;12.87;53.55
36260;BME280;22296;50.824;5.644;2023-01-30T01:08:55;101078.31;;;12.90;53.18
36260;BME280;22296;50.824;5.644;2023-01-30T01:11:22;101082.19;;;12.89;53.50
36260;BME280;22296;50.824;5.644;2023-01-30T01:13:58;101077.88;;;12.83;53.52
36260;BME280;22296;50.824;5.644;2023-01-30T01:16:26;101079.53;;;12.84;53.43
36260;BME280;22296;50.824;5.644;2023-01-30T01:18:57;101072.31;;;12.83;53.60
36260;BME280;22296;50.824;5.644;2023-01-30T01:21:24;101083.78;;;12.77;53.70
36260;BME280;22296;50.824;5.644;2023-01-30T01:23:54;101073.31;;;12.74;53.81
36260;BME280;22296;50.824;5.644;2023-01-30T01:26:21;101065.06;;;12.69;53.72
36260;BME280;22296;50.824;5.644;2023-01-30T01:28:48;101074.53;;;12.68;53.92
36260;BME280;22296;50.824;5.644;2023-01-30T01:31:16;101078.47;;;12.62;53.99
36260;BME280;22296;50.824;5.644;2023-01-30T01:33:43;101082.22;;;12.71;53.64
36260;BME280;22296;50.824;5.644;2023-01-30T01:36:10;101081.09;;;12.72;53.63
36260;BME280;22296;50.824;5.644;2023-01-30T01:38:45;101074.28;;;12.64;53.60
36260;BME280;22296;50.824;5.644;2023-01-30T01:41:13;101085.94;;;12.61;54.08
36260;BME280;22296;50.824;5.644;2023-01-30T01:44:07;101066.38;;;12.76;54.33
36260;BME280;22296;50.824;5.644;2023-01-30T01:49:25;101068.94;;;13.24;53.47
36260;BME280;22296;50.824;5.644;2023-01-30T01:57:11;101059.66;;;13.47;52.93
36260;BME280;22296;50.824;5.644;2023-01-30T01:59:48;101069.84;;;13.51;52.97
36260;BME280;22296;50.824;5.644;2023-01-30T02:02:18;101063.97;;;13.53;52.95
36260;BME280;22296;50.824;5.644;2023-01-30T02:04:48;101055.56;;;13.58;52.82
36260;BME280;22296;50.824;5.644;2023-01-30T02:07:57;101056.72;;;13.57;52.97
36260;BME280;22296;50.824;5.644;2023-01-30T02:10:39;101050.03;;;13.58;52.78
36260;BME280;22296;50.824;5.644;2023-01-30T02:13:08;101047.19;;;13.63;52.94
36260;BME280;22296;50.824;5.644;2023-01-30T02:15:35;101042.66;;;13.67;52.84
36260;BME280;22296;50.824;5.644;2023-01-30T02:18:02;101044.53;;;13.72;52.68
36260;BME280;22296;50.824;5.644;2023-01-30T02:31:31;101017.56;;;12.80;54.28
36260;BME280;22296;50.824;5.644;2023-01-30T02:39:38;101014.47;;;12.68;54.34
36260;BME280;22296;50.824;5.644;2023-01-30T02:42:38;101007.88;;;12.64;54.55
36260;BME280;22296;50.824;5.644;2023-01-30T02:50:24;100985.28;;;12.57;54.44
36260;BME280;22296;50.824;5.644;2023-01-30T02:52:53;100969.53;;;12.57;54.50
36260;BME280;22296;50.824;5.644;2023-01-30T02:55:25;100970.34;;;12.58;54.30
36260;BME280;22296;50.824;5.644;2023-01-30T02:57:53;100975.47;;;12.51;54.67
36260;BME280;22296;50.824;5.644;2023-01-30T03:09:47;100949.41;;;12.52;54.41
36260;BME280;22296;50.824;5.644;2023-01-30T03:12:17;100949.97;;;12.54;54.38
36260;BME280;22296;50.824;5.644;2023-01-30T03:17:55;100954.53;;;12.45;54.62
36260;BME280;22296;50.824;5.644;2023-01-30T03:20:46;100948.81;;;12.55;54.33
36260;BME280;22296;50.824;5.644;2023-01-30T03:23:13;100947.78;;;12.51;54.48
36260;BME280;22296;50.824;5.644;2023-01-30T03:25:42;100931.84;;;12.43;54.67
36260;BME280;22296;50.824;5.644;2023-01-30T03:28:11;100944.47;;;12.49;54.56
36260;BME280;22296;50.824;5.644;2023-01-30T03:30:40;100946.75;;;12.47;54.73
36260;BME280;22296;50.824;5.644;2023-01-30T03:33:09;100954.53;;;12.45;54.71
36260;BME280;22296;50.824;5.644;2023-01-30T03:35:38;100935.06;;;12.50;54.70
36260;BME280;22296;50.824;5.644;2023-01-30T03:38:05;100942.25;;;12.51;54.49
36260;BME280;22296;50.824;5.644;2023-01-30T03:40:33;100933.41;;;12.49;54.42
36260;BME280;22296;50.824;5.644;2023-01-30T03:43:00;100941.03;;;12.57;54.29
36260;BME280;22296;50.824;5.644;2023-01-30T03:45:27;100929.03;;;12.48;54.75
36260;BME280;22296;50.824;5.644;2023-01-30T03:47:54;100927.88;;;12.49;54.56
36260;BME280;22296;50.824;5.644;2023-01-30T03:50:21;100915.72;;;12.50;54.70
36260;BME280;22296;50.824;5.644;2023-01-30T03:52:47;100912.94;;;12.50;54.45
36260;BME280;22296;50.824;5.644;2023-01-30T03:55:18;100924.09;;;12.45;54.69
36260;BME280;22296;50.824;5.644;2023-01-30T03:57:45;100926.25;;;12.48;54.60
36260;BME280;22296;50.824;5.644;2023-01-30T04:00:13;100930.75;;;12.44;54.76
36260;BME280;22296;50.824;5.644;2023-01-30T04:02:46;100925.44;;;12.47;54.71
36260;BME280;22296;50.824;5.644;2023-01-30T04:05:16;100930.75;;;12.44;54.71
36260;BME280;22296;50.824;5.644;2023-01-30T04:07:49;100920.28;;;12.41;54.89
36260;BME280;22296;50.824;5.644;2023-01-30T04:10:17;100912.06;;;12.36;55.10
36260;BME280;22296;50.824;5.644;2023-01-30T04:12:46;100904.06;;;12.34;55.33
36260;BME280;22296;50.824;5.644;2023-01-30T04:15:13;100902.63;;;12.37;55.16
36260;BME280;22296;50.824;5.644;2023-01-30T04:17:47;100907.56;;;12.40;55.06
36260;BME280;22296;50.824;5.644;2023-01-30T04:20:26;100914.16;;;12.44;54.84
36260;BME280;22296;50.824;5.644;2023-01-30T04:22:55;100899.25;;;12.40;54.96
36260;BME280;22296;50.824;5.644;2023-01-30T04:25:24;100904.78;;;12.40;55.02
36260;BME280;22296;50.824;5.644;2023-01-30T04:27:51;100895.91;;;12.43;54.72
36260;BME280;22296;50.824;5.644;2023-01-30T04:30:25;100903.78;;;12.36;54.99
36260;BME280;22296;50.824;5.644;2023-01-30T04:33:03;100901.63;;;12.33;55.23
36260;BME280;22296;50.824;5.644;2023-01-30T04:35:29;100888.53;;;12.38;55.13
36260;BME280;22296;50.824;5.644;2023-01-30T04:37:56;100898.75;;;12.38;54.96
36260;BME280;22296;50.824;5.644;2023-01-30T04:40:23;100885.75;;;12.38;55.07
36260;BME280;22296;50.824;5.644;2023-01-30T04:42:49;100898.16;;;12.41;55.01
36260;BME280;22296;50.824;5.644;2023-01-30T04:45:31;100890.38;;;12.43;54.84
36260;BME280;22296;50.824;5.644;2023-01-30T04:47:59;100889.34;;;12.39;54.91
36260;BME280;22296;50.824;5.644;2023-01-30T04:50:26;100881.28;;;12.42;55.05
36260;BME280;22296;50.824;5.644;2023-01-30T04:52:53;100876.03;;;12.41;55.08
36260;BME280;22296;50.824;5.644;2023-01-30T04:55:20;100877.22;;;12.35;55.49
36260;BME280;22296;50.824;5.644;2023-01-30T04:57:47;100873.25;;;12.41;54.91
36260;BME280;22296;50.824;5.644;2023-01-30T05:00:14;100869.38;;;12.42;55.26
36260;BME280;22296;50.824;5.644;2023-01-30T05:02:50;100860.88;;;12.38;55.16
36260;BME280;22296;50.824;5.644;2023-01-30T05:05:17;100864.13;;;12.40;55.10
36260;BME280;22296;50.824;5.644;2023-01-30T05:07:44;100862.81;;;12.38;55.00
36260;BME280;22296;50.824;5.644;2023-01-30T05:10:11;100861.91;;;12.42;55.04
36260;BME280;22296;50.824;5.644;2023-01-30T05:12:38;100863.16;;;12.50;55.15
36260;BME280;22296;50.824;5.644;2023-01-30T05:15:05;100866.63;;;12.42;55.11
36260;BME280;22296;50.824;5.644;2023-01-30T05:17:32;100862.19;;;12.41;55.15
36260;BME280;22296;50.824;5.644;2023-01-30T05:20:00;100854.72;;;12.41;55.28
36260;BME280;22296;50.824;5.644;2023-01-30T05:22:26;100860.25;;;12.41;55.29
36260;BME280;22296;50.824;5.644;2023-01-30T05:24:53;100864.38;;;12.44;55.15
36260;BME280;22296;50.824;5.644;2023-01-30T05:27:20;100869.91;;;12.44;55.04
36260;BME280;22296;50.824;5.644;2023-01-30T05:29:47;100865.41;;;12.48;55.13
36260;BME280;22296;50.824;5.644;2023-01-30T05:32:15;100868.25;;;12.43;55.30
36260;BME280;22296;50.824;5.644;2023-01-30T05:34:42;100866.53;;;12.47;55.08
36260;BME280;22296;50.824;5.644;2023-01-30T05:37:10;100873.38;;;12.49;55.09
36260;BME280;22296;50.824;5.644;2023-01-30T05:39:37;100857.50;;;12.41;55.43
36260;BME280;22296;50.824;5.644;2023-01-30T05:42:04;100867.63;;;12.46;55.38
36260;BME280;22296;50.824;5.644;2023-01-30T05:44:31;100877.38;;;12.43;55.20
36260;BME280;22296;50.824;5.644;2023-01-30T05:46:58;100885.28;;;12.50;55.15
36260;BME280;22296;50.824;5.644;2023-01-30T05:49:25;100880.03;;;12.48;55.03
36260;BME280;22296;50.824;5.644;2023-01-30T05:51:51;100881.78;;;12.44;55.32
36260;BME280;22296;50.824;5.644;2023-01-30T05:54:18;100876.63;;;12.38;55.49
36260;BME280;22296;50.824;5.644;2023-01-30T05:56:49;100875.44;;;12.44;55.23
36260;BME280;22296;50.824;5.644;2023-01-30T05:59:16;100868.69;;;12.50;55.11
36260;BME280;22296;50.824;5.644;2023-01-30T06:01:46;100860.66;;;12.48;55.07
36260;BME280;22296;50.824;5.644;2023-01-30T06:04:13;100865.41;;;12.48;54.93
36260;BME280;22296;50.824;5.644;2023-01-30T06:06:40;100875.34;;;12.49;55.26
36260;BME280;22296;50.824;5.644;2023-01-30T06:09:08;100878.53;;;12.56;54.67
36260;BME280;22296;50.824;5.644;2023-01-30T06:11:36;100873.00;;;12.56;54.80
36260;BME280;22296;50.824;5.644;2023-01-30T06:14:02;100857.00;;;12.53;54.76
36260;BME280;22296;50.824;5.644;2023-01-30T06:16:29;100857.13;;;12.48;55.08
36260;BME280;22296;50.824;5.644;2023-01-30T06:18:56;100860.47;;;12.45;55.10
36260;BME280;22296;50.824;5.644;2023-01-30T06:21:23;100872.56;;;12.49;55.04
36260;BME280;22296;50.824;5.644;2023-01-30T06:23:50;100866.44;;;12.52;54.94
36260;BME280;22296;50.824;5.644;2023-01-30T06:26:17;100872.56;;;12.49;54.85
36260;BME280;22296;50.824;5.644;2023-01-30T06:28:43;100879.75;;;12.50;54.77
36260;BME280;22296;50.824;5.644;2023-01-30T06:31:10;100893.47;;;12.55;54.84
36260;BME280;22296;50.824;5.644;2023-01-30T06:33:37;100902.28;;;12.57;54.76
36260;BME280;22296;50.824;5.644;2023-01-30T06:36:04;100895.13;;;12.56;54.86
36260;BME280;22296;50.824;5.644;2023-01-30T06:38:31;100896.34;;;12.50;55.04
36260;BME280;22296;50.824;5.644;2023-01-30T06:40:58;100899.03;;;12.55;55.06
36260;BME280;22296;50.824;5.644;2023-01-30T06:43:25;100895.75;;;12.53;54.89
36260;BME280;22296;50.824;5.644;2023-01-30T06:45:51;100894.81;;;12.57;54.77
36260;BME280;22296;50.824;5.644;2023-01-30T06:48:18;100895.56;;;12.63;54.66
36260;BME280;22296;50.824;5.644;2023-01-30T06:50:45;100892.59;;;12.60;54.77
36260;BME280;22296;50.824;5.644;2023-01-30T06:53:13;100908.06;;;12.61;54.77
36260;BME280;22296;50.824;5.644;2023-01-30T06:55:40;100907.16;;;12.65;54.51
36260;BME280;22296;50.824;5.644;2023-01-30T06:58:11;100913.31;;;12.62;54.86
36260;BME280;22296;50.824;5.644;2023-01-30T07:00:40;100919.34;;;12.64;54.73
36260;BME280;22296;50.824;5.644;2023-01-30T07:03:12;100928.75;;;12.63;54.87
36260;BME280;22296;50.824;5.644;2023-01-30T07:05:40;100928.38;;;12.70;54.57
36260;BME280;22296;50.824;5.644;2023-01-30T07:08:07;100920.91;;;12.70;54.57
36260;BME280;22296;50.824;5.644;2023-01-30T07:10:34;100917.53;;;12.73;54.69
36260;BME280;22296;50.824;5.644;2023-01-30T07:13:02;100928.00;;;12.76;54.65
36260;BME280;22296;50.824;5.644;2023-01-30T07:15:30;100925.72;;;12.78;54.46
36260;BME280;22296;50.824;5.644;2023-01-30T07:17:58;100916.22;;;12.84;54.31
36260;BME280;22296;50.824;5.644;2023-01-30T07:20:25;100923.69;;;12.84;54.27
36260;BME280;22296;50.824;5.644;2023-01-30T07:22:53;100928.84;;;12.90;54.13
36260;BME280;22296;50.824;5.644;2023-01-30T07:25:23;100924.97;;;12.91;54.15
36260;BME280;22296;50.824;5.644;2023-01-30T07:27:51;100934.28;;;12.95;54.23
36260;BME280;22296;50.824;5.644;2023-01-30T07:30:18;100924.66;;;12.93;54.15
36260;BME280;22296;50.824;5.644;2023-01-30T07:32:56;100938.09;;;12.99;54.10
36260;BME280;22296;50.824;5.644;2023-01-30T07:35:26;100929.47;;;13.01;53.95
36260;BME280;22296;50.824;5.644;2023-01-30T07:37:53;100930.31;;;13.01;53.84
36260;BME280;22296;50.824;5.644;2023-01-30T07:40:21;100928.03;;;13.03;54.04
36260;BME280;22296;50.824;5.644;2023-01-30T07:42:59;100931.34;;;13.05;53.97
36260;BME280;22296;50.824;5.644;2023-01-30T07:45:49;100938.50;;;13.06;53.81
36260;BME280;22296;50.824;5.644;2023-01-30T07:48:17;100934.66;;;13.07;53.84
36260;BME280;22296;50.824;5.644;2023-01-30T07:50:45;100934.03;;;13.10;53.83
36260;BME280;22296;50.824;5.644;2023-01-30T07:53:14;100946.75;;;13.11;53.67
36260;BME280;22296;50.824;5.644;2023-01-30T07:55:41;100947.56;;;13.12;53.67
36260;BME280;22296;50.824;5.644;2023-01-30T07:58:14;100945.00;;;13.16;53.73
36260;BME280;22296;50.824;5.644;2023-01-30T08:00:42;100948.59;;;13.16;53.77
36260;BME280;22296;50.824;5.644;2023-01-30T08:03:14;100941.13;;;13.17;53.71
36260;BME280;22296;50.824;5.644;2023-01-30T08:05:41;100948.41;;;13.12;53.92
36260;BME280;22296;50.824;5.644;2023-01-30T08:08:13;100945.63;;;13.26;53.96
36260;BME280;22296;50.824;5.644;2023-01-30T08:10:40;100940.03;;;13.31;54.38
36260;BME280;22296;50.824;5.644;2023-01-30T08:13:07;100955.91;;;13.39;54.45
36260;BME280;22296;50.824;5.644;2023-01-30T08:15:34;100948.34;;;13.45;54.05
36260;BME280;22296;50.824;5.644;2023-01-30T08:18:00;100961.56;;;13.48;53.89
36260;BME280;22296;50.824;5.644;2023-01-30T08:20:27;100968.13;;;13.52;53.76
36260;BME280;22296;50.824;5.644;2023-01-30T08:22:54;100962.19;;;13.45;53.86
36260;BME280;22296;50.824;5.644;2023-01-30T08:25:22;100970.00;;;13.43;53.55
36260;BME280;22296;50.824;5.644;2023-01-30T08:27:49;100971.09;;;13.42;53.92
36260;BME280;22296;50.824;5.644;2023-01-30T08:30:16;100959.69;;;13.43;53.63
36260;BME280;22296;50.824;5.644;2023-01-30T08:32:44;100973.25;;;13.45;53.58
36260;BME280;22296;50.824;5.644;2023-01-30T08:35:11;100956.13;;;13.43;53.53
36260;BME280;22296;50.824;5.644;2023-01-30T08:37:38;100972.53;;;13.39;53.57
36260;BME280;22296;50.824;5.644;2023-01-30T08:40:06;100973.25;;;13.45;53.40
36260;BME280;22296;50.824;5.644;2023-01-30T08:42:34;100984.63;;;13.43;53.36
36260;BME280;22296;50.824;5.644;2023-01-30T08:45:00;100994.91;;;13.43;53.58
36260;BME280;22296;50.824;5.644;2023-01-30T08:47:27;101000.97;;;13.45;53.38
36260;BME280;22296;50.824;5.644;2023-01-30T08:49:56;101001.78;;;13.45;53.40
36260;BME280;22296;50.824;5.644;2023-01-30T08:52:23;101004.03;;;13.43;53.45
36260;BME280;22296;50.824;5.644;2023-01-30T08:54:49;101003.22;;;13.43;53.31
36260;BME280;22296;50.824;5.644;2023-01-30T08:57:16;101001.78;;;13.45;53.29
36260;BME280;22296;50.824;5.644;2023-01-30T08:59:43;100998.69;;;13.47;53.38
36260;BME280;22296;50.824;5.644;2023-01-30T09:02:11;101001.19;;;13.48;53.31
36260;BME280;22296;50.824;5.644;2023-01-30T09:04:38;101001.97;;;13.49;53.11
36260;BME280;22296;50.824;5.644;2023-01-30T09:07:04;100999.31;;;13.44;53.12
36260;BME280;22296;50.824;5.644;2023-01-30T09:09:31;100990.22;;;13.57;53.54
36260;BME280;22296;50.824;5.644;2023-01-30T09:11:58;100992.97;;;13.57;53.46
36260;BME280;22296;50.824;5.644;2023-01-30T09:14:25;100991.84;;;13.58;53.34
36260;BME280;22296;50.824;5.644;2023-01-30T09:16:51;100998.91;;;13.64;53.06
36260;BME280;22296;50.824;5.644;2023-01-30T09:19:25;100999.53;;;13.61;53.26
36260;BME280;22296;50.824;5.644;2023-01-30T09:21:54;101003.44;;;13.60;53.17
36260;BME280;22296;50.824;5.644;2023-01-30T09:24:22;101003.44;;;13.60;53.15
36260;BME280;22296;50.824;5.644;2023-01-30T09:26:56;101006.31;;;13.82;53.25
36260;BME280;22296;50.824;5.644;2023-01-30T09:29:25;101020.91;;;13.88;53.29
36260;BME280;22296;50.824;5.644;2023-01-30T09:31:52;101019.66;;;13.94;53.24
36260;BME280;22296;50.824;5.644;2023-01-30T09:34:19;101021.50;;;13.98;53.08
36260;BME280;22296;50.824;5.644;2023-01-30T09:36:46;101017.09;;;13.97;53.27
36260;BME280;22296;50.824;5.644;2023-01-30T09:39:12;101017.09;;;13.97;53.33
36260;BME280;22296;50.824;5.644;2023-01-30T09:50:46;101039.59;;;13.82;53.11
36260;BME280;22296;50.824;5.644;2023-01-30T09:56:10;101057.66;;;13.80;52.98
36260;BME280;22296;50.824;5.644;2023-01-30T09:58:57;101058.50;;;13.80;53.05
36260;BME280;22296;50.824;5.644;2023-01-30T10:01:39;101043.47;;;13.81;52.78
36260;BME280;22296;50.824;5.644;2023-01-30T10:04:14;101067.41;;;13.77;53.03
36260;BME280;22296;50.824;5.644;2023-01-30T10:07:03;101054.97;;;13.75;53.06
36260;BME280;22296;50.824;5.644;2023-01-30T10:09:54;101066.25;;;13.78;53.42
36260;BME280;22296;50.824;5.644;2023-01-30T10:21:00;101054.16;;;13.74;53.22
36260;BME280;22296;50.824;5.644;2023-01-30T10:26:27;101068.03;;;13.74;52.90
36260;BME280;22296;50.824;5.644;2023-01-30T10:29:01;101063.81;;;13.77;53.14
36260;BME280;22296;50.824;5.644;2023-01-30T10:31:39;101070.78;;;13.74;53.18
36260;BME280;22296;50.824;5.644;2023-01-30T10:34:20;101070.19;;;13.77;52.92
36260;BME280;22296;50.824;5.644;2023-01-30T10:36:57;101069.34;;;13.77;52.81
36260;BME280;22296;50.824;5.644;2023-01-30T10:39:37;101071.81;;;13.78;52.91
36260;BME280;22296;50.824;5.644;2023-01-30T10:42:30;101079.00;;;13.79;52.79
36260;BME280;22296;50.824;5.644;2023-01-30T10:45:09;101084.44;;;13.84;52.64
36260;BME280;22296;50.824;5.644;2023-01-30T10:50:24;101082.72;;;13.88;52.53
36260;BME280;22296;50.824;5.644;2023-01-30T10:58:30;101084.06;;;13.91;52.37
36260;BME280;22296;50.824;5.644;2023-01-30T11:03:38;101075.41;;;13.92;52.47
36260;BME280;22296;50.824;5.644;2023-01-30T11:06:16;101076.56;;;13.91;52.42
36260;BME280;22296;50.824;5.644;2023-01-30T11:08:44;101084.78;;;13.96;52.33
36260;BME280;22296;50.824;5.644;2023-01-30T11:11:28;101089.72;;;13.99;52.06
36260;BME280;22296;50.824;5.644;2023-01-30T11:14:10;101089.72;;;13.99;52.08
36260;BME280;22296;50.824;5.644;2023-01-30T11:16:44;101087.75;;;14.00;52.07
36260;BME280;22296;50.824;5.644;2023-01-30T11:19:12;101083.53;;;14.02;52.22
36260;BME280;22296;50.824;5.644;2023-01-30T11:21:52;101070.78;;;14.01;52.18
36260;BME280;22296;50.824;5.644;2023-01-30T11:24:28;101066.06;;;14.02;52.10
36260;BME280;22296;50.824;5.644;2023-01-30T11:27:08;101070.19;;;14.04;52.16
36260;BME280;22296;50.824;5.644;2023-01-30T11:29:39;101076.34;;;14.01;52.14
36260;BME280;22296;50.824;5.644;2023-01-30T11:32:12;101067.91;;;14.06;52.19
36260;BME280;22296;50.824;5.644;2023-01-30T11:34:42;101074.00;;;14.08;51.91
36260;BME280;22296;50.824;5.644;2023-01-30T11:37:26;101074.28;;;14.07;51.95
36260;BME280;22296;50.824;5.644;2023-01-30T11:39:55;101066.78;;;14.07;52.01
36260;BME280;22296;50.824;5.644;2023-01-30T11:42:31;101069.06;;;14.05;52.07
36260;BME280;22296;50.824;5.644;2023-01-30T11:44:59;101074.59;;;14.05;51.92
36260;BME280;22296;50.824;5.644;2023-01-30T11:47:51;101079.31;;;14.05;52.01
36260;BME280;22296;50.824;5.644;2023-01-30T11:50:30;101080.78;;;14.02;52.17
36260;BME280;22296;50.824;5.644;2023-01-30T11:56:26;101086.31;;;14.02;52.29
36260;BME280;22296;50.824;5.644;2023-01-30T11:58:59;101071.94;;;14.00;52.11
36260;BME280;22296;50.824;5.644;2023-01-30T12:01:28;101088.06;;;13.98;52.22
36260;BME280;22296;50.824;5.644;2023-01-30T12:03:56;101081.06;;;14.01;52.20
36260;BME280;22296;50.824;5.644;2023-01-30T12:06:35;101084.16;;;13.99;52.06
36260;BME280;22296;50.824;5.644;2023-01-30T12:09:03;101082.59;;;13.93;52.25
36260;BME280;22296;50.824;5.644;2023-01-30T12:14:08;101088.88;;;14.12;52.72
36260;BME280;22296;50.824;5.644;2023-01-30T12:16:56;101094.00;;;14.19;52.69
36260;BME280;22296;50.824;5.644;2023-01-30T12:22:20;101073.06;;;14.13;52.34
36260;BME280;22296;50.824;5.644;2023-01-30T12:24:58;101079.53;;;14.08;52.41
36260;BME280;22296;50.824;5.644;2023-01-30T12:27:42;101082.09;;;14.05;52.46
36260;BME280;22296;50.824;5.644;2023-01-30T12:30:25;101083.94;;;14.09;52.16
36260;BME280;22296;50.824;5.644;2023-01-30T12:32:58;101087.25;;;14.11;52.24
36260;BME280;22296;50.824;5.644;2023-01-30T12:35:34;101090.31;;;14.10;52.09
36260;BME280;22296;50.824;5.644;2023-01-30T12:38:29;101088.69;;;14.09;52.33
36260;BME280;22296;50.824;5.644;2023-01-30T12:41:26;101081.50;;;14.08;52.35
36260;BME280;22296;50.824;5.644;2023-01-30T12:57:59;101085.69;;;14.05;52.21
36260;BME280;22296;50.824;5.644;2023-01-30T13:00:58;101092.97;;;14.01;52.21
36260;BME280;22296;50.824;5.644;2023-01-30T13:26:32;101111.50;;;14.06;52.26
36260;BME280;22296;50.824;5.644;2023-01-30T13:29:32;101108.41;;;14.07;52.26
36260;BME280;22296;50.824;5.644;2023-01-30T13:32:04;101104.50;;;14.08;52.22
36260;BME280;22296;50.824;5.644;2023-01-30T13:34:38;101115.88;;;14.07;52.20
36260;BME280;22296;50.824;5.644;2023-01-30T13:37:07;101117.22;;;14.09;52.14
36260;BME280;22296;50.824;5.644;2023-01-30T13:39:44;101119.91;;;14.14;52.05
36260;BME280;22296;50.824;5.644;2023-01-30T13:42:35;101122.47;;;14.11;52.20
36260;BME280;22296;50.824;5.644;2023-01-30T13:45:05;101122.38;;;14.16;51.98
36260;BME280;22296;50.824;5.644;2023-01-30T13:47:55;101126.59;;;14.13;52.08
36260;BME280;22296;50.824;5.644;2023-01-30T13:56:03;101150.31;;;14.19;52.05
36260;BME280;22296;50.824;5.644;2023-01-30T13:58:39;101151.16;;;14.20;52.04
36260;BME280;22296;50.824;5.644;2023-01-30T14:01:10;101152.97;;;14.24;51.94
36260;BME280;22296;50.824;5.644;2023-01-30T14:03:42;101159.03;;;14.26;51.90
36260;BME280;22296;50.824;5.644;2023-01-30T14:06:31;101160.81;;;14.22;51.99
36260;BME280;22296;50.824;5.644;2023-01-30T14:09:03;101159.16;;;14.21;51.91
36260;BME280;22296;50.824;5.644;2023-01-30T14:16:53;101174.56;;;14.27;51.89
36260;BME280;22296;50.824;5.644;2023-01-30T14:19:55;101192.03;;;14.28;51.93
36260;BME280;22296;50.824;5.644;2023-01-30T14:22:34;101193.06;;;14.32;51.83
36260;BME280;22296;50.824;5.644;2023-01-30T14:27:49;101198.84;;;14.36;51.77
36260;BME280;22296;50.824;5.644;2023-01-30T14:32:59;101204.41;;;14.36;51.76
36260;BME280;22296;50.824;5.644;2023-01-30T14:35:27;101208.81;;;14.37;51.79
36260;BME280;22296;50.824;5.644;2023-01-30T14:38:14;101199.38;;;14.38;51.71
36260;BME280;22296;50.824;5.644;2023-01-30T14:40:45;101198.22;;;14.39;51.78
36260;BME280;22296;50.824;5.644;2023-01-30T14:45:59;101212.63;;;14.41;51.55
36260;BME280;22296;50.824;5.644;2023-01-30T14:48:38;101215.38;;;14.41;51.52
36260;BME280;22296;50.824;5.644;2023-01-30T14:51:11;101222.91;;;14.40;51.36
36260;BME280;22296;50.824;5.644;2023-01-30T15:02:04;101245.91;;;14.41;51.48
36260;BME280;22296;50.824;5.644;2023-01-30T15:07:40;101263.59;;;14.45;51.54
36260;BME280;22296;50.824;5.644;2023-01-30T15:18:37;101277.59;;;14.53;52.19
36260;BME280;22296;50.824;5.644;2023-01-30T15:27:41;101307.44;;;14.75;52.00
36260;BME280;22296;50.824;5.644;2023-01-30T15:32:43;101306.19;;;14.81;51.83
36260;BME280;22296;50.824;5.644;2023-01-30T15:37:40;101308.97;;;14.81;51.96
36260;BME280;22296;50.824;5.644;2023-01-30T15:42:46;101323.69;;;14.95;51.94
36260;BME280;22296;50.824;5.644;2023-01-30T15:45:28;101328.22;;;14.91;51.72
36260;BME280;22296;50.824;5.644;2023-01-30T15:50:28;101325.75;;;14.76;51.86
36260;BME280;22296;50.824;5.644;2023-01-30T15:52:55;101325.94;;;14.79;51.64
36260;BME280;22296;50.824;5.644;2023-01-30T15:55:34;101336.22;;;14.79;51.62
36260;BME280;22296;50.824;5.644;2023-01-30T15:58:08;101330.88;;;14.69;52.51
36260;BME280;22296;50.824;5.644;2023-01-30T16:00:39;101343.84;;;14.87;52.02
36260;BME280;22296;50.824;5.644;2023-01-30T16:03:12;101343.22;;;14.90;51.89
36260;BME280;22296;50.824;5.644;2023-01-30T16:05:48;101348.16;;;14.93;52.01
36260;BME280;22296;50.824;5.644;2023-01-30T16:08:20;101353.84;;;15.02;52.08
36260;BME280;22296;50.824;5.644;2023-01-30T16:10:47;101363.59;;;14.99;51.78
36260;BME280;22296;50.824;5.644;2023-01-30T16:13:15;101362.16;;;14.88;51.81